Tiempo atmosférico en la estación meteorológica de Cañaveral, Cáceres (373 m.)



Fecha
DESCASC
Temp. máxima en grados centígrados (hora)
DESCASC
Temp. mínima en grados centígrados (hora)
DESCASC
Temp. media en grados centígrados
DESCASC
Racha de viento máxima en m/sg (hora)
DESCASC
Velocidad máxima media en intervalos de 10 minutos(hora)
DESCASC
Precipitaciones diarias en mm
DESCASC
Precipitaciones de 00:00 a 06:00 en mm
DESCASC
Precipitaciones de 06:00 a 12:00 en mm
DESCASC
Precipitaciones de 12:00 a 18:00 en mm
DESCASC
Precipitaciones de 18:00 a 24:00 en mm
DESCASC
17-09-2020 -- (--) -- (--) -- -- (--) -- (--) -- 0 0 -- --
16-09-2020 31.1 (16:00) 16.7 (08:20) 23.9 8.89 (15:20) 4.72 (16:50) 0 0 0 0 0
15-09-2020 30.4 (16:10) 17.2 (08:20) 23.8 8.33 (14:50) 5 (17:00) 0 0 0 0 0
14-09-2020 32.6 (17:00) 21.6 (00:00) 27.1 13.61 (15:50) 7.22 (18:40) 0 0 0 0 0
13-09-2020 34.4 (17:40) 23 (00:00) 28.7 11.11 (10:20) 7.78 (10:20) 0 0 0 0 0
12-09-2020 35.8 (17:50) 22 (00:00) 28.9 11.11 (08:00) 7.5 (08:30) 0 0 0 0 0
11-09-2020 35.8 (16:20) 20.5 (00:00) 28.1 10.56 (11:50) 7.22 (11:40) 0 0 0 0 0
10-09-2020 33.9 (17:40) 16.8 (00:00) 25.4 8.89 (11:00) 5.28 (11:10) 0 0 0 0 0
09-09-2020 32.3 (18:40) 19.3 (00:00) 25.8 11.39 (10:30) 8.06 (10:40) 0 0 0 0 0
08-09-2020 29.2 (16:40) 17.8 (00:00) 23.5 16.94 (10:00) 11.11 (10:30) 0 0 0 0 0
07-09-2020 32 (17:10) 18.5 (08:00) 25.3 14.72 (06:40) 10.83 (06:40) 0 0 0 0 0
06-09-2020 35.9 (17:00) 23 (00:00) 29.5 14.17 (09:40) 8.33 (10:00) 0 0 0 0 0
05-09-2020 36.9 (18:00) 20.9 (00:00) 28.9 8.61 (11:20) 5.83 (02:30) 0 0 0 0 0
04-09-2020 35.8 (19:10) 21.3 (00:00) 28.5 6.39 (03:40) 4.17 (20:10) 0 0 0 0 0
03-09-2020 35.3 (16:50) 18.3 (00:00) 26.8 9.17 (16:10) 6.11 (11:20) 0 0 0 0 0
02-09-2020 33.8 (16:30) 19.4 (00:00) 26.6 12.22 (09:30) 8.06 (09:30) 0 0 0 0 0
01-09-2020 31.8 (16:20) 17.2 (00:00) 24.5 8.61 (17:20) 4.72 (17:30) 0 0 0 0 0
31-08-2020 30 (17:10) 16.6 (00:00) 23.3 11.94 (10:20) 7.78 (09:40) 0 0 0 0 0
30-08-2020 26.5 (18:40) 15.7 (00:00) 21.1 12.78 (02:40) 8.89 (04:10) 0 0 0 0 0
29-08-2020 26.4 (18:30) 13.9 (00:00) 20.1 17.22 (07:00) 11.94 (07:00) 0 0 0 0 0
28-08-2020 32.1 (17:40) 21.4 (00:00) 26.7 14.17 (14:20) 10.28 (22:40) 0 0 0 0 0
27-08-2020 38.3 (17:30) 22.6 (00:00) 30.4 13.06 (16:40) 9.44 (00:20) 0 0 0 0 0
26-08-2020 38.9 (18:00) 21.4 (00:00) 30.2 10.56 (00:50) 7.5 (00:30) 0 0 0 0 0
25-08-2020 38.7 (17:40) 20 (00:00) 29.4 9.72 (23:10) 6.39 (23:20) 0 0 0 0 0
24-08-2020 37.5 (19:00) 24.8 (00:00) 31.1 13.06 (02:50) 10 (02:50) 0 0 0 0 0
23-08-2020 34.8 (17:30) 22 (00:00) 28.4 12.78 (05:40) 9.72 (05:40) 0 0 0 0 0
22-08-2020 34.1 (17:30) 18.7 (00:00) 26.4 12.78 (18:40) 8.61 (05:40) 0 0 0 0 0
21-08-2020 30.4 (17:10) 21.2 (00:00) 25.8 9.17 (01:40) 6.11 (02:00) 0 0 0 0 0

Gráficas

Temp. máximas Temp. mínimas Temp. medias Precipitaciones Rachas de viento máximas Velocidades máximas media en intervalos de 10 minutos

Datos horarios

Fecha y hora oficial Temperatura (ºC) Velocidad del viento (km/h) Dirección del viento Racha (km/h) Dirección de racha Precipitación (mm) Presión (hPa) Tendencia (hPa) Humedad (%)
2020-09-19 23:00:00 18.9 12 Oeste 19 Oeste 0 -- -- 80
2020-09-19 22:00:00 18.7 2 Este 13 Oeste 0.2 -- -- 82
2020-09-19 21:00:00 18.8 7 Oeste 27 Sudoeste 0 -- -- 79
2020-09-19 20:00:00 20.1 5 Oeste 15 Oeste 0 -- -- 70
2020-09-19 19:00:00 20.1 8 Oeste 22 Noroeste 0 -- -- 69
2020-09-19 18:00:00 20 21 Oeste 55 Sudoeste 0 -- -- 70
2020-09-19 17:00:00 22 14 Sudoeste 27 Sudoeste 0 -- -- 57
2020-09-19 16:00:00 22.9 13 Oeste 24 Oeste 0 -- -- 55
2020-09-19 15:00:00 21.3 19 Sudoeste 29 Oeste 0 -- -- 62
2020-09-19 14:00:00 21.2 20 Oeste 35 Sudoeste 0 -- -- 62
2020-09-19 13:00:00 19.6 23 Oeste 36 Sudoeste 0 -- -- 72
2020-09-19 12:00:00 18 21 Sudoeste 35 Oeste 0 -- -- 83
2020-09-19 11:00:00 17.3 17 Sudoeste 28 Sudoeste 0.2 -- -- 88
2020-09-19 10:00:00 16.3 12 Sudoeste 26 Oeste 0 -- -- 93
2020-09-19 09:00:00 16.6 17 Sudoeste 27 Sudoeste 0 -- -- 90
2020-09-19 08:00:00 16.6 14 Sudoeste 28 Sudoeste 0 -- -- 91
2020-09-19 07:00:00 16.6 15 Sudoeste 26 Sur 0 -- -- 92
2020-09-19 06:00:00 16.6 15 Sudoeste 30 Sudoeste 0 -- -- 92
2020-09-19 05:00:00 16.7 18 Sudoeste 42 Sudoeste 0 -- -- 91
2020-09-19 04:00:00 16.7 25 Sudoeste 40 Sudoeste 0.2 -- -- 92
2020-09-19 03:00:00 16.5 22 Sudoeste 43 Sudoeste 1 -- -- 93
2020-09-19 02:00:00 16.5 20 Sur 35 Sur 0.8 -- -- 94
2020-09-19 01:00:00 16.7 20 Sur 32 Sur 2 -- -- 93
2020-09-19 00:00:00 17.2 16 Sur 27 Sur 0 -- -- 91
2020-09-18 23:00:00 17.2 16 Sur 31 Sur 0 -- -- 92
2020-09-18 22:00:00 16.8 14 Sudeste 20 Sudeste 0.2 -- -- 93
2020-09-18 21:00:00 16.8 10 Sudeste 32 Sudeste 1.2 -- -- 91
2020-09-18 20:00:00 16.8 25 Sudeste 45 Sudeste 6.6 -- -- 85
2020-09-18 19:00:00 18.7 16 Sudeste 26 Sudeste 5.4 -- -- 83
2020-09-18 18:00:00 -- -- -- -- -- -- -- -- --
2020-09-18 17:00:00 -- -- -- -- -- -- -- -- --
2020-09-18 16:00:00 -- -- -- -- -- -- -- -- --
2020-09-18 15:00:00 -- -- -- -- -- -- -- -- --
2020-09-18 14:00:00 -- -- -- -- -- -- -- -- --
2020-09-18 13:00:00 -- -- -- -- -- -- -- -- --
2020-09-18 12:00:00 -- -- -- -- -- -- -- -- --
2020-09-18 11:00:00 -- -- -- -- -- -- -- -- --
2020-09-18 10:00:00 -- -- -- -- -- -- -- -- --
2020-09-18 09:00:00 -- -- -- -- -- -- -- -- --
2020-09-18 08:00:00 -- -- -- -- -- -- -- -- --
2020-09-18 07:00:00 -- -- -- -- -- -- -- -- --
2020-09-18 06:00:00 -- -- -- -- -- -- -- -- --
2020-09-18 05:00:00 -- -- -- -- -- -- -- -- --
2020-09-18 04:00:00 -- -- -- -- -- -- -- -- --
2020-09-18 03:00:00 -- -- -- -- -- -- -- -- --
2020-09-18 02:00:00 -- -- -- -- -- -- -- -- --
2020-09-18 01:00:00 -- -- -- -- -- -- -- -- --
2020-09-18 00:00:00 -- -- -- -- -- -- -- -- --
2020-09-17 23:00:00 -- -- -- -- -- -- -- -- --
2020-09-17 22:00:00 -- -- -- -- -- -- -- -- --
2020-09-17 21:00:00 -- -- -- -- -- -- -- -- --
2020-09-17 20:00:00 -- -- -- -- -- -- -- -- --
2020-09-17 19:00:00 -- -- -- -- -- -- -- -- --
2020-09-17 18:00:00 -- -- -- -- -- -- -- -- --
2020-09-17 17:00:00 -- -- -- -- -- -- -- -- --
2020-09-17 16:00:00 -- -- -- -- -- -- -- -- --
2020-09-17 15:00:00 24.4 19 Sudeste 31 Sudeste 0 -- -- 60
2020-09-17 14:00:00 21.9 15 Sudeste 33 Sudeste 0 -- -- 71
2020-09-17 13:00:00 24.1 20 Sudeste 34 Sudeste 0 -- -- 54
2020-09-17 12:00:00 24.9 19 Sudeste 33 Sudeste 0 -- -- 55
2020-09-17 11:00:00 23.4 18 Sudeste 27 Sudeste 0 -- -- 57
2020-09-17 10:00:00 22.1 10 Sudeste 15 Sudeste 0 -- -- 59
2020-09-17 09:00:00 21.1 4 Este 9 Sur 0 -- -- 61
2020-09-17 08:00:00 20.8 4 Nordeste 9 Nordeste 0 -- -- 60
2020-09-17 07:00:00 20.8 6 Nordeste 13 Nordeste 0 -- -- 59
2020-09-17 06:00:00 20.7 9 Nordeste 16 Nordeste 0 -- -- 59
2020-09-17 05:00:00 20.4 10 Nordeste 16 Nordeste 0 -- -- 59
2020-09-17 04:00:00 20.6 7 Este 12 Nordeste 0 -- -- 59
2020-09-17 03:00:00 20.6 4 Sudoeste 12 Sudoeste 0 -- -- 59
2020-09-17 02:00:00 20.5 6 Sudoeste 12 Oeste 0 -- -- 56
2020-09-17 01:00:00 21.7 2 Sudeste 11 Sudoeste 0 -- -- 52
2020-09-17 00:00:00 22.7 2 Nordeste 15 Sur 0 -- -- 47
2020-09-16 23:00:00 24.2 5 Sudoeste 9 Sudoeste 0 -- -- 44
2020-09-16 22:00:00 25.8 4 Noroeste 13 Norte 0 -- -- 40
2020-09-16 21:00:00 27.1 4 Nordeste 12 Sur 0 -- -- 38
2020-09-16 20:00:00 28.7 8 Sur 15 Sur 0 -- -- 34
2020-09-16 19:00:00 29.3 11 Sur 23 Sudoeste 0 -- -- 29
2020-09-16 18:00:00 30.4 15 Sudoeste 23 Sudoeste 0 -- -- 30
2020-09-16 17:00:00 30.3 15 Sudoeste 29 Sudoeste 0 -- -- 30
2020-09-16 16:00:00 31.1 13 Sur 32 Sur 0 -- -- 28
2020-09-16 15:00:00 30.5 5 Sudeste 23 Sudeste 0 -- -- 32
2020-09-16 14:00:00 29.4 10 Sudeste 23 Sudeste 0 -- -- 34
2020-09-16 13:00:00 28.3 8 Este 21 Este 0 -- -- 35
2020-09-16 12:00:00 26.1 11 Este 17 Este 0 -- -- 39
2020-09-16 11:00:00 22.6 8 Este 12 Este 0 -- -- 48
2020-09-16 10:00:00 19.7 3 Sudeste 6 Nordeste 0 -- -- 55
2020-09-16 09:00:00 17.1 0 Calma 9 Este 0 -- -- 63
2020-09-16 08:00:00 17.3 0 Calma 4 Este -- -- -- 62
2020-09-16 07:00:00 17.6 0 Calma 4 Oeste 0 -- -- 60
2020-09-16 06:00:00 18.3 2 Este 6 Nordeste 0 -- -- 57
2020-09-16 05:00:00 18.2 6 Nordeste 12 Este 0 -- -- 58
2020-09-16 04:00:00 19.8 2 Sudoeste 8 Nordeste 0 -- -- 55
2020-09-16 03:00:00 20.3 0 Calma 9 Oeste 0 -- -- 52
2020-09-16 02:00:00 21.6 3 Nordeste 8 Este 0 -- -- 48
2020-09-16 01:00:00 22.1 4 Nordeste 9 Este 0 -- -- 47
2020-09-16 00:00:00 23.1 5 Oeste 11 Oeste 0 -- -- 45
2020-09-15 23:00:00 23.9 6 Oeste 8 Oeste 0 -- -- 42
2020-09-15 22:00:00 24.3 5 Oeste 10 Oeste 0 -- -- 39
2020-09-15 21:00:00 25.6 9 Sudoeste 18 Sudoeste 0 -- -- 38
2020-09-15 20:00:00 28.3 11 Sudoeste 23 Sudoeste 0 -- -- 32
2020-09-15 19:00:00 29.7 14 Sudoeste 26 Sudoeste 0 -- -- 32
2020-09-15 18:00:00 29.9 13 Sur 24 Sudoeste 0 -- -- 32
2020-09-15 17:00:00 30.4 18 Sudoeste 26 Sudoeste 0 -- -- 32
2020-09-15 16:00:00 30.3 14 Sudoeste 26 Sudoeste 0 -- -- 32
2020-09-15 15:00:00 27.8 14 Sur 30 Sur 0 -- -- 39
2020-09-15 14:00:00 28 12 Sudoeste 28 Sudoeste 0 -- -- 41
2020-09-15 13:00:00 26.2 8 Sur 21 Sur 0 -- -- 45
2020-09-15 12:00:00 24.3 5 Oeste 12 Sur 0 -- -- 53
2020-09-15 11:00:00 22.2 4 Sudoeste 13 Oeste 0 -- -- 61
2020-09-15 10:00:00 19.8 8 Sudoeste 14 Oeste 0 -- -- 70
2020-09-15 09:00:00 17.4 5 Sur 10 Sudoeste 0 -- -- 75
2020-09-15 08:00:00 17.3 8 Sudoeste 11 Oeste 0 -- -- 76
2020-09-15 07:00:00 17.8 2 Sur 10 Sudoeste 0 -- -- 72
2020-09-15 06:00:00 19 6 Sudoeste 18 Oeste 0 -- -- 69
2020-09-15 05:00:00 19.8 11 Sudoeste 21 Sudoeste 0 -- -- 65
2020-09-15 04:00:00 20.6 13 Sudoeste 22 Sudoeste 0 -- -- 60
2020-09-15 03:00:00 21.2 17 Oeste 23 Oeste 0 -- -- 56
2020-09-15 02:00:00 22.3 10 Sudoeste 13 Sudoeste 0 -- -- 53
2020-09-15 01:00:00 23.1 5 Sudoeste 21 Oeste 0 -- -- 51
2020-09-15 00:00:00 24.4 14 Oeste 23 Oeste 0 -- -- 48
2020-09-14 23:00:00 24.7 11 Oeste 20 Oeste 0 -- -- 48
2020-09-14 22:00:00 25.8 8 Oeste 18 Sudoeste 0 -- -- 43
2020-09-14 21:00:00 27.4 14 Sudoeste 27 Sudoeste 0 -- -- 40
2020-09-14 20:00:00 29.3 20 Sudoeste 31 Sudoeste 0 -- -- 38
2020-09-14 19:00:00 30.8 20 Sudoeste 36 Sudoeste 0 -- -- 35
2020-09-14 18:00:00 31.3 25 Sudoeste 37 Sudoeste 0 -- -- 34
2020-09-14 17:00:00 32.6 22 Sudoeste 36 Sur 0 -- -- 31
2020-09-14 16:00:00 32.2 18 Sudoeste 49 Sudoeste 0 -- -- 31
2020-09-14 15:00:00 31.5 14 Sudoeste 32 Sur 0 -- -- 33
2020-09-14 14:00:00 30.1 13 Sur 30 Sudeste 0 -- -- 36
2020-09-14 13:00:00 28.9 13 Sudeste 31 Sur 0 -- -- 40
2020-09-14 12:00:00 26.8 10 Sudeste 21 Este 0 -- -- 46
2020-09-14 11:00:00 25.4 11 Nordeste 20 Este 0 -- -- 54
2020-09-14 10:00:00 23.7 6 Este 10 Este 0 -- -- 57
2020-09-14 09:00:00 21.7 5 Nordeste 14 Nordeste 0 -- -- 63
2020-09-14 08:00:00 21.8 3 Nordeste 6 Nordeste 0 -- -- 61
2020-09-14 07:00:00 21.9 4 Este 6 Este 0 -- -- 61
2020-09-14 06:00:00 22.2 4 Nordeste 4 Nordeste 0 -- -- 59
2020-09-14 05:00:00 22.7 2 Nordeste 6 Sudoeste 0 -- -- 57
2020-09-14 04:00:00 23.2 2 Sudoeste 4 Oeste 0 -- -- 52
2020-09-14 03:00:00 23.5 5 Sur 13 Sur 0 -- -- 51
2020-09-14 02:00:00 24 0 Calma 10 Sudoeste 0 -- -- 40
2020-09-14 01:00:00 24.8 2 Sur 10 Sudoeste 0 -- -- 37
2020-09-14 00:00:00 26.6 3 Este 12 Este -- -- -- 33
2020-09-13 23:00:00 27.8 9 Nordeste 13 Norte 0 -- -- 33
2020-09-13 22:00:00 28.7 9 Nordeste 21 Este 0 -- -- 31
2020-09-13 21:00:00 30.4 14 Este 26 Este 0 -- -- 29
2020-09-13 20:00:00 33.4 15 Sudeste 27 Sudeste 0 -- -- 21
2020-09-13 19:00:00 34.1 17 Sudeste 30 Sudeste 0 -- -- 21
2020-09-13 18:00:00 33.9 19 Este 33 Este 0 -- -- 24
2020-09-13 17:00:00 32.9 21 Este 36 Este 0 -- -- 26
2020-09-13 16:00:00 34.1 19 Este 33 Este 0 -- -- 25
2020-09-13 15:00:00 31.5 18 Este 31 Este 0 -- -- 29
2020-09-13 14:00:00 30.7 20 Este 36 Este 0 -- -- 31
2020-09-13 13:00:00 29.8 22 Este 37 Este 0 -- -- 32
2020-09-13 12:00:00 28.1 22 Este 38 Este 0 -- -- 36
2020-09-13 11:00:00 26.3 24 Este 40 Este 0 -- -- 39
2020-09-13 10:00:00 26.2 22 Este 35 Este 0 -- -- 37
2020-09-13 09:00:00 23.9 14 Nordeste 22 Nordeste 0 -- -- 37
2020-09-13 08:00:00 23.3 13 Nordeste 22 Este 0 -- -- 36
2020-09-13 07:00:00 24.2 16 Este 23 Este 0 -- -- 33
2020-09-13 06:00:00 24.7 14 Nordeste 21 Este 0 -- -- 32
2020-09-13 05:00:00 24.7 12 Nordeste 23 Nordeste 0 -- -- 31
2020-09-13 04:00:00 23.2 5 Noroeste 15 Oeste 0 -- -- 37
2020-09-13 03:00:00 27 6 Nordeste 14 Nordeste 0 -- -- 27
2020-09-13 02:00:00 27.7 11 Nordeste 17 Nordeste 0 -- -- 28
2020-09-13 01:00:00 29.3 13 Nordeste 17 Nordeste 0 -- -- 26
2020-09-13 00:00:00 29.4 12 Nordeste 16 Nordeste 0 -- -- 26
2020-09-12 23:00:00 29.6 9 Nordeste 10 Nordeste 0 -- -- 26
2020-09-12 22:00:00 29.2 8 Nordeste 15 Este 0 -- -- 26
2020-09-12 21:00:00 31.2 6 Nordeste 9 Este 0 -- -- 25
2020-09-12 20:00:00 33.7 9 Este 17 Este 0 -- -- 21
2020-09-12 19:00:00 35.1 7 Sudeste 27 Sudeste 0 -- -- 20
2020-09-12 18:00:00 35.8 9 Nordeste 25 Sudeste 0 -- -- 19
2020-09-12 17:00:00 34.7 11 Nordeste 23 Este 0 -- -- 19
2020-09-12 16:00:00 34.6 10 Este 25 Este 0 -- -- 21
2020-09-12 15:00:00 34.4 13 Sudeste 23 Sudeste 0 -- -- 21
2020-09-12 14:00:00 33.8 15 Este 27 Sudeste 0 -- -- 22
2020-09-12 13:00:00 32.1 18 Este 32 Este 0 -- -- 24
2020-09-12 12:00:00 29.7 20 Este 30 Este 0 -- -- 27
2020-09-12 11:00:00 27.6 21 Este 37 Este 0 -- -- 30
2020-09-12 10:00:00 25.8 23 Este 37 Este 0 -- -- 33
2020-09-12 09:00:00 24.2 23 Este 39 Este 0 -- -- 36
2020-09-12 08:00:00 24.1 26 Este 40 Este 0 -- -- 36
2020-09-12 07:00:00 22.6 15 Nordeste 22 Este 0 -- -- 37
2020-09-12 06:00:00 23.9 9 Nordeste 14 Nordeste 0 -- -- 32
2020-09-12 05:00:00 23.4 9 Nordeste 16 Nordeste 0 -- -- 32
2020-09-12 04:00:00 22 6 Este 9 Este 0 -- -- 36
2020-09-12 03:00:00 24.5 0 Calma 7 Oeste 0 -- -- 31
2020-09-12 02:00:00 25 6 Oeste 15 Este 0 -- -- 30
2020-09-12 01:00:00 26.4 4 Norte 13 Norte 0 -- -- 28
2020-09-12 00:00:00 26.5 6 Norte 11 Norte 0 -- -- 28
2020-09-11 23:00:00 27 10 Norte 12 Norte 0 -- -- 27
2020-09-11 22:00:00 27.3 8 Norte 11 Norte 0 -- -- 27
2020-09-11 21:00:00 28.6 8 Norte 12 Norte 0 -- -- 25
2020-09-11 20:00:00 32 10 Norte 20 Norte 0 -- -- 22
2020-09-11 19:00:00 33.5 13 Norte 28 Norte 0 -- -- 20
2020-09-11 18:00:00 33.8 13 Norte 27 Norte 0 -- -- 21
2020-09-11 17:00:00 35.8 8 Oeste 35 Este 0 -- -- 18
2020-09-11 16:00:00 34.9 6 Sur 19 Sudoeste 0 -- -- 19
2020-09-11 15:00:00 34.3 7 Sudoeste 21 Este 0 -- -- 20
2020-09-11 14:00:00 32.9 9 Sudeste 25 Este 0 -- -- 23
2020-09-11 13:00:00 30.9 17 Este 32 Este 0 -- -- 26
2020-09-11 12:00:00 27.8 23 Este 38 Este 0 -- -- 30
2020-09-11 11:00:00 27.1 23 Este 37 Este 0 -- -- 31
2020-09-11 10:00:00 25.1 18 Este 32 Este 0 -- -- 34
2020-09-11 09:00:00 23.1 15 Este 29 Este 0 -- -- 37
2020-09-11 08:00:00 22.5 17 Este 34 Este 0 -- -- 37
2020-09-11 07:00:00 21.5 14 Este 30 Este 0 -- -- 39
2020-09-11 06:00:00 21.5 3 Nordeste 8 Este 0 -- -- 38
2020-09-11 05:00:00 20.8 8 Este 8 Este 0 -- -- 39
2020-09-11 04:00:00 21 3 Nordeste 12 Nordeste 0 -- -- 40
2020-09-11 03:00:00 22.1 0 Calma 9 Oeste 0 -- -- 41
2020-09-11 02:00:00 24.8 4 Norte 19 Norte 0 -- -- 35
2020-09-11 01:00:00 27 15 Norte 24 Norte 0 -- -- 27
2020-09-11 00:00:00 27 13 Norte 24 Norte 0 -- -- 27
2020-09-10 23:00:00 26.5 4 Noroeste 13 Oeste 0 -- -- 27
2020-09-10 22:00:00 28.1 6 Norte 12 Norte 0 -- -- 25
2020-09-10 21:00:00 28.5 9 Norte 12 Norte 0 -- -- 25
2020-09-10 20:00:00 32.4 8 Noroeste 17 Noroeste 0 -- -- 20
2020-09-10 19:00:00 33.4 9 Norte 24 Norte 0 -- -- 20
2020-09-10 18:00:00 33.5 13 Norte 25 Noroeste 0 -- -- 19
2020-09-10 17:00:00 33.7 6 Nordeste 28 Norte 0 -- -- 17
2020-09-10 16:00:00 32.4 17 Norte 26 Norte 0 -- -- 18
2020-09-10 15:00:00 32.9 4 Noroeste 22 Sudeste 0 -- -- 23
2020-09-10 14:00:00 32.2 5 Sudeste 23 Sudeste 0 -- -- 25
2020-09-10 13:00:00 30.2 12 Este 26 Este 0 -- -- 28
2020-09-10 12:00:00 28.5 18 Este 30 Este 0 -- -- 32
2020-09-10 11:00:00 26.6 19 Este 32 Este 0 -- -- 34
2020-09-10 10:00:00 24.9 15 Este 26 Este 0 -- -- 36
2020-09-10 09:00:00 19.8 5 Este 17 Este 0 -- -- 41
2020-09-10 08:00:00 18.3 13 Este 18 Este 0 -- -- 43
2020-09-10 07:00:00 17.1 0 Calma 9 Norte 0 -- -- 48
2020-09-10 06:00:00 19.9 3 Noroeste 10 Norte 0 -- -- 39
2020-09-10 05:00:00 20.9 0 Calma 5 Sudoeste 0 -- -- 36
2020-09-10 04:00:00 20.7 2 Oeste 6 Nordeste 0 -- -- 36
2020-09-10 03:00:00 22.4 3 Nordeste 9 Este 0 -- -- 33
2020-09-10 02:00:00 23.3 4 Nordeste 9 Oeste 0 -- -- 30
2020-09-10 01:00:00 24.8 3 Este 8 Norte 0 -- -- 26
2020-09-10 00:00:00 24.6 2 Nordeste 4 Nordeste 0 -- -- 29
2020-09-09 23:00:00 24.8 2 Norte 5 Este 0 -- -- 29
2020-09-09 22:00:00 25.3 3 Oeste 9 Norte 0 -- -- 28
2020-09-09 21:00:00 27.1 9 Norte 11 Noroeste 0 -- -- 26
2020-09-09 20:00:00 30.8 8 Norte 13 Este 0 -- -- 22
2020-09-09 19:00:00 31.6 10 Este 18 Oeste 0 -- -- 21
2020-09-09 18:00:00 31.9 13 Norte 24 Noroeste 0 -- -- 21
2020-09-09 17:00:00 31.5 11 Norte 28 Norte 0 -- -- 22
2020-09-09 16:00:00 31.3 10 Norte 22 Noroeste 0 -- -- 21
2020-09-09 15:00:00 30.7 10 Sudeste 29 Nordeste 0 -- -- 24
2020-09-09 14:00:00 30.1 9 Este 31 Este 0 -- -- 24
2020-09-09 13:00:00 28.3 20 Este 35 Este 0 -- -- 29
2020-09-09 12:00:00 26.4 19 Este 38 Este 0 -- -- 34
2020-09-09 11:00:00 24 28 Este 41 Este 0 -- -- 39
2020-09-09 10:00:00 22.6 23 Este 40 Nordeste 0 -- -- 42
2020-09-09 09:00:00 20.4 24 Este 37 Este 0 -- -- 46
2020-09-09 08:00:00 19.4 15 Nordeste 26 Este 0 -- -- 43
2020-09-09 07:00:00 19.9 13 Nordeste 21 Nordeste 0 -- -- 39
2020-09-09 06:00:00 20.7 12 Nordeste 20 Nordeste 0 -- -- 36
2020-09-09 05:00:00 20.8 14 Nordeste 23 Este 0 -- -- 35
2020-09-09 04:00:00 20.9 11 Nordeste 22 Nordeste 0 -- -- 34
2020-09-09 03:00:00 21.7 10 Nordeste 21 Nordeste 0 -- -- 32
2020-09-09 02:00:00 22.7 13 Nordeste 19 Nordeste 0 -- -- 30
2020-09-09 01:00:00 23.2 13 Nordeste 21 Nordeste 0 -- -- 30
2020-09-09 00:00:00 23.7 15 Nordeste 24 Este 0 -- -- 30
2020-09-08 23:00:00 23.7 11 Nordeste 20 Este 0 -- -- 30
2020-09-08 22:00:00 24 12 Nordeste 15 Nordeste 0 -- -- 28
2020-09-08 21:00:00 25.5 8 Nordeste 21 Este 0 -- -- 27
2020-09-08 20:00:00 27.3 12 Este 25 Este 0 -- -- 21
2020-09-08 19:00:00 28.6 13 Este 31 Este 0 -- -- 24
2020-09-08 18:00:00 29.2 13 Este 30 Este 0 -- -- 24
2020-09-08 17:00:00 28.9 21 Este 35 Nordeste 0 -- -- 22
2020-09-08 16:00:00 28.3 22 Este 41 Este 0 -- -- 25
2020-09-08 15:00:00 27.4 22 Este 40 Este 0 -- -- 28
2020-09-08 14:00:00 26.2 28 Este 47 Este 0 -- -- 33
2020-09-08 13:00:00 24.7 31 Este 51 Este 0 -- -- 36
2020-09-08 12:00:00 22.9 34 Este 53 Este 0 -- -- 40
2020-09-08 11:00:00 21 33 Este 60 Este 0 -- -- 42
2020-09-08 10:00:00 19.3 39 Este 61 Este 0 -- -- 43
2020-09-08 09:00:00 18.2 35 Este 52 Nordeste 0 -- -- 43
2020-09-08 08:00:00 18 30 Este 50 Este 0 -- -- 40
2020-09-08 07:00:00 18.8 29 Este 47 Este 0 -- -- 36
2020-09-08 06:00:00 19.7 31 Este 48 Este 0 -- -- 33
2020-09-08 05:00:00 20.9 33 Este 51 Este 0 -- -- 31
2020-09-08 04:00:00 22.2 27 Nordeste 41 Nordeste 0 -- -- 29
2020-09-08 03:00:00 22.4 21 Nordeste 34 Nordeste 0 -- -- 30
2020-09-08 02:00:00 22.5 17 Nordeste 29 Nordeste 0 -- -- 31
2020-09-08 01:00:00 23.4 18 Nordeste 28 Norte 0 -- -- 29
2020-09-08 00:00:00 23.7 17 Norte 37 Norte 0 -- -- 29
2020-09-07 23:00:00 23.9 26 Norte 40 Norte 0 -- -- 30
2020-09-07 22:00:00 24.7 26 Norte 38 Norte 0 -- -- 28
2020-09-07 21:00:00 26.2 13 Norte 22 Norte 0 -- -- 25
2020-09-07 20:00:00 29.7 17 Norte 25 Norte 0 -- -- 20
2020-09-07 19:00:00 31.1 16 Norte 28 Norte 0 -- -- 22
2020-09-07 18:00:00 31.8 18 Norte 34 Norte 0 -- -- 22
2020-09-07 17:00:00 31.7 15 Norte 32 Norte 0 -- -- 22
2020-09-07 16:00:00 31.2 20 Norte 33 Norte 0 -- -- 23
2020-09-07 15:00:00 30.3 17 Norte 32 Norte 0 -- -- 26
2020-09-07 14:00:00 29.7 11 Nordeste 33 Norte 0 -- -- 27
2020-09-07 13:00:00 27.5 19 Norte 39 Norte 0 -- -- 31
2020-09-07 12:00:00 24.8 26 Norte 35 Norte 0 -- -- 37
2020-09-07 11:00:00 22.8 23 Norte 44 Norte 0 -- -- 40
2020-09-07 10:00:00 20.2 34 Norte 51 Norte 0 -- -- 45
2020-09-07 09:00:00 18.9 35 Norte 51 Norte 0 -- -- 49
2020-09-07 08:00:00 18.5 30 Norte 40 Norte 0 -- -- 49
2020-09-07 07:00:00 19.5 18 Nordeste 53 Norte 0 -- -- 47
2020-09-07 06:00:00 21.4 36 Norte 50 Norte 0 -- -- 45
2020-09-07 05:00:00 23.1 33 Norte 45 Norte 0 -- -- 43
2020-09-07 04:00:00 25 27 Norte 38 Norte 0 -- -- 39
2020-09-07 03:00:00 26.1 23 Norte 32 Norte 0 -- -- 37
2020-09-07 02:00:00 26.9 24 Norte 35 Norte 0 -- -- 36
2020-09-07 01:00:00 27.6 23 Norte 32 Norte 0 -- -- 33
2020-09-07 00:00:00 28.2 20 Norte 29 Norte 0 -- -- 31
2020-09-06 23:00:00 29.7 14 Norte 21 Norte 0 -- -- 28
2020-09-06 22:00:00 29.6 11 Noroeste 18 Norte 0 -- -- 28
2020-09-06 21:00:00 30.9 6 Noroeste 9 Noroeste 0 -- -- 24
2020-09-06 20:00:00 34.3 8 Norte 17 Norte 0 -- -- 20
2020-09-06 19:00:00 35.2 10 Noroeste 28 Norte 0 -- -- 20
2020-09-06 18:00:00 35.8 11 Noroeste 22 Noroeste 0 -- -- 19
2020-09-06 17:00:00 35.9 10 Noroeste 23 Noroeste 0 -- -- 20
2020-09-06 16:00:00 35.2 12 Norte 24 Noroeste 0 -- -- 24
2020-09-06 15:00:00 34.9 6 Sur 17 Nordeste 0 -- -- 22
2020-09-06 14:00:00 32.9 7 Norte 19 Este 0 -- -- 27
2020-09-06 13:00:00 32.1 7 Sudeste 23 Nordeste 0 -- -- 28
2020-09-06 12:00:00 29.7 19 Este 31 Este 0 -- -- 31
2020-09-06 11:00:00 27.8 25 Este 48 Este 0 -- -- 35
2020-09-06 10:00:00 25.8 30 Este 51 Este 0 -- -- 40
2020-09-06 09:00:00 24.2 24 Nordeste 41 Nordeste 0 -- -- 46
2020-09-06 08:00:00 23.3 19 Nordeste 32 Nordeste 0 -- -- 45
2020-09-06 07:00:00 23.7 13 Nordeste 22 Este 0 -- -- 39
2020-09-06 06:00:00 23.9 12 Nordeste 32 Este 0 -- -- 38
2020-09-06 05:00:00 23 3 Oeste 8 Norte 0 -- -- 44
2020-09-06 04:00:00 26.1 5 Norte 14 Norte 0 -- -- 32
2020-09-06 03:00:00 26.1 8 Norte 17 Oeste 0 -- -- 34
2020-09-06 02:00:00 26.3 6 Noroeste 15 Nordeste 0 -- -- 31
2020-09-06 01:00:00 26 7 Noroeste 14 Sur 0 -- -- 32
2020-09-06 00:00:00 29.3 9 Norte 12 Nordeste 0 -- -- 27
2020-09-05 23:00:00 29.2 8 Nordeste 14 Nordeste 0 -- -- 28
2020-09-05 22:00:00 30.2 9 Nordeste 11 Nordeste 0 -- -- 24
2020-09-05 21:00:00 31.1 6 Norte 12 Norte 0 -- -- 23
2020-09-05 20:00:00 34.5 9 Norte 15 Norte 0 -- -- 20
2020-09-05 19:00:00 35.7 8 Este 19 Oeste 0 -- -- 19
2020-09-05 18:00:00 36.9 9 Oeste 20 Norte 0 -- -- 19
2020-09-05 17:00:00 35.9 8 Norte 22 Sudeste 0 -- -- 20
2020-09-05 16:00:00 35.2 8 Nordeste 22 Sudeste 0 -- -- 21
2020-09-05 15:00:00 34.8 9 Sur 24 Sudeste 0 -- -- 22
2020-09-05 14:00:00 33.6 10 Sudeste 23 Este 0 -- -- 25
2020-09-05 13:00:00 31.5 13 Este 26 Este 0 -- -- 29
2020-09-05 12:00:00 29.6 15 Este 31 Este 0 -- -- 34
2020-09-05 11:00:00 27.5 19 Este 29 Este 0 -- -- 36
2020-09-05 10:00:00 25.1 12 Este 25 Este 0 -- -- 37
2020-09-05 09:00:00 22.9 6 Este 17 Nordeste 0 -- -- 35
2020-09-05 08:00:00 21.1 9 Nordeste 15 Este 0 -- -- 38
2020-09-05 07:00:00 25 12 Nordeste 18 Nordeste 0 -- -- 29
2020-09-05 06:00:00 24.2 13 Nordeste 18 Nordeste 0 -- -- 34
2020-09-05 05:00:00 25.3 8 Este 21 Norte 0 -- -- 33
2020-09-05 04:00:00 27.5 15 Norte 25 Norte 0 -- -- 30
2020-09-05 03:00:00 27.5 13 Norte 29 Norte 0 -- -- 30
2020-09-05 02:00:00 25.3 3 Noroeste 13 Nordeste 0 -- -- 36
2020-09-05 01:00:00 28.6 10 Nordeste 14 Nordeste 0 -- -- 28
2020-09-05 00:00:00 28.8 10 Norte 13 Norte 0 -- -- 27
2020-09-04 23:00:00 28.4 9 Norte 14 Norte 0 -- -- 28
2020-09-04 22:00:00 29.2 12 Norte 15 Norte 0 -- -- 27
2020-09-04 21:00:00 30.5 12 Norte 21 Norte 0 -- -- 26
2020-09-04 20:00:00 34.4 7 Noroeste 20 Noroeste 0 -- -- 22
2020-09-04 19:00:00 35.5 4 Sur 19 Sur 0 -- -- 20
2020-09-04 18:00:00 35.4 9 Sudeste 22 Sudeste 0 -- -- 20
2020-09-04 17:00:00 35.1 9 Este 18 Sudeste 0 -- -- 20
2020-09-04 16:00:00 34.6 6 Sudeste 20 Este 0 -- -- 24
2020-09-04 15:00:00 33.7 9 Sudeste 21 Sudeste 0 -- -- 26
2020-09-04 14:00:00 32.2 8 Este 23 Este 0 -- -- 27
2020-09-04 13:00:00 30.8 8 Nordeste 15 Este 0 -- -- 27
2020-09-04 12:00:00 29.7 4 Sur 18 Sudeste 0 -- -- 28
2020-09-04 11:00:00 28 10 Este 18 Este 0 -- -- 30
2020-09-04 10:00:00 26 9 Este 17 Este 0 -- -- 32
2020-09-04 09:00:00 23.1 8 Nordeste 16 Nordeste 0 -- -- 35
2020-09-04 08:00:00 21.3 7 Nordeste 15 Nordeste 0 -- -- 37
2020-09-04 07:00:00 22.3 8 Nordeste 19 Nordeste 0 -- -- 34
2020-09-04 06:00:00 22.4 9 Nordeste 19 Nordeste 0 -- -- 33
2020-09-04 05:00:00 23.2 10 Nordeste 19 Nordeste 0 -- -- 32
2020-09-04 04:00:00 21.7 8 Oeste 23 Sur 0 -- -- 36
2020-09-04 03:00:00 27.1 11 Nordeste 15 Nordeste 0 -- -- 27
2020-09-04 02:00:00 27.7 12 Nordeste 16 Nordeste 0 -- -- 26
2020-09-04 01:00:00 27.4 10 Nordeste 14 Norte 0 -- -- 26
2020-09-04 00:00:00 27 9 Nordeste 17 Este 0 -- -- 24
2020-09-03 23:00:00 27.4 6 Nordeste 13 Norte 0 -- -- 24
2020-09-03 22:00:00 28.7 12 Norte 14 Norte 0 -- -- 22
2020-09-03 21:00:00 29.9 10 Norte 16 Norte 0 -- -- 22
2020-09-03 20:00:00 33.9 3 Nordeste 14 Nordeste 0 -- -- 17
2020-09-03 19:00:00 34.6 6 Nordeste 16 Sudeste 0 -- -- 17
2020-09-03 18:00:00 35.3 6 Nordeste 21 Sudeste 0 -- -- 16
2020-09-03 17:00:00 35 9 Oeste 33 Sudeste 0 -- -- 17
2020-09-03 16:00:00 34.4 8 Norte 19 Este 0 -- -- 18
2020-09-03 15:00:00 34.1 9 Sur 23 Este 0 -- -- 18
2020-09-03 14:00:00 33.1 7 Sudeste 23 Este 0 -- -- 21
2020-09-03 13:00:00 31.2 15 Este 30 Este 0 -- -- 23
2020-09-03 12:00:00 28.5 19 Este 31 Este 0 -- -- 25
2020-09-03 11:00:00 27.1 19 Este 31 Este 0 -- -- 26
2020-09-03 10:00:00 24.8 15 Este 20 Nordeste 0 -- -- 28
2020-09-03 09:00:00 22.6 9 Nordeste 19 Nordeste 0 -- -- 31
2020-09-03 08:00:00 20.6 9 Nordeste 16 Norte 0 -- -- 33
2020-09-03 07:00:00 19.1 6 Este 11 Nordeste 0 -- -- 37
2020-09-03 06:00:00 18.5 6 Oeste 12 Norte 0 -- -- 37
2020-09-03 05:00:00 22.9 8 Nordeste 12 Nordeste 0 -- -- 30
2020-09-03 04:00:00 23 4 Norte 13 Norte 0 -- -- 28
2020-09-03 03:00:00 23 8 Nordeste 13 Nordeste 0 -- -- 29
2020-09-03 02:00:00 23.5 7 Oeste 16 Nordeste 0 -- -- 30
2020-09-03 01:00:00 25.8 8 Nordeste 24 Norte 0 -- -- 24
2020-09-03 00:00:00 25.8 20 Norte 33 Norte 0 -- -- 23
2020-09-02 23:00:00 25.8 6 Norte 12 Norte 0 -- -- 21
2020-09-02 22:00:00 26.7 8 Norte 14 Norte 0 -- -- 21
2020-09-02 21:00:00 28.1 10 Norte 13 Norte 0 -- -- 19
2020-09-02 20:00:00 31.8 9 Norte 24 Norte 0 -- -- 17
2020-09-02 19:00:00 32.4 7 Norte 21 Noroeste 0 -- -- 17
2020-09-02 18:00:00 32.7 6 Norte 24 Norte 0 -- -- 17
2020-09-02 17:00:00 33.5 11 Oeste 19 Oeste 0 -- -- 15
2020-09-02 16:00:00 32.7 10 Este 32 Nordeste 0 -- -- 16
2020-09-02 15:00:00 31.9 9 Este 25 Este 0 -- -- 18
2020-09-02 14:00:00 30.7 19 Este 32 Este 0 -- -- 21
2020-09-02 13:00:00 29 17 Este 36 Este 0 -- -- 24
2020-09-02 12:00:00 26.9 24 Este 38 Este 0 -- -- 26
2020-09-02 11:00:00 24.9 20 Este 38 Este 0 -- -- 28
2020-09-02 10:00:00 23 24 Este 44 Este 0 -- -- 30
2020-09-02 09:00:00 21.3 22 Este 36 Este 0 -- -- 33
2020-09-02 08:00:00 20.1 21 Nordeste 36 Este 0 -- -- 34
2020-09-02 07:00:00 20.4 13 Nordeste 24 Nordeste 0 -- -- 32
2020-09-02 06:00:00 21.9 12 Este 33 Norte 0 -- -- 29
2020-09-02 05:00:00 22.5 25 Norte 39 Norte 0 -- -- 28
2020-09-02 04:00:00 22.6 25 Norte 36 Norte -- -- -- 35
2020-09-02 03:00:00 22.9 20 Norte 33 Norte 0 -- -- 33
2020-09-02 02:00:00 23.7 22 Norte 32 Norte 0 -- -- 28
2020-09-02 01:00:00 24.1 22 Norte 30 Norte 0 -- -- 29
2020-09-02 00:00:00 23 5 Oeste 15 Oeste 0 -- -- 29
2020-09-01 23:00:00 24.5 9 Norte 12 Noroeste 0 -- -- 25
2020-09-01 22:00:00 24.8 4 Norte 5 Norte 0 -- -- 24
2020-09-01 21:00:00 27.7 2 Nordeste 6 Norte 0 -- -- 21
2020-09-01 20:00:00 30.7 2 Nordeste 17 Noroeste 0 -- -- 18
2020-09-01 19:00:00 31.6 8 Oeste 23 Sudoeste 0 -- -- 17
2020-09-01 18:00:00 31.1 12 Norte 31 Noroeste 0 -- -- 18
2020-09-01 17:00:00 30.9 16 Noroeste 30 Norte 0 -- -- 17
2020-09-01 16:00:00 31.2 12 Noroeste 27 Oeste 0 -- -- 15
2020-09-01 15:00:00 30 9 Oeste 25 Sudoeste 0 -- -- 17
2020-09-01 14:00:00 29.4 9 Sudoeste 15 Sudoeste 0 -- -- 20
2020-09-01 13:00:00 27.8 5 Este 12 Este 0 -- -- 23
2020-09-01 12:00:00 27 5 Sudeste 14 Sudeste 0 -- -- 23
2020-09-01 11:00:00 24.8 8 Este 12 Este 0 -- -- 25
2020-09-01 10:00:00 21.9 3 Sur 13 Oeste 0 -- -- 31
2020-09-01 09:00:00 20.1 8 Nordeste 13 Nordeste 0 -- -- 31
2020-09-01 08:00:00 17.4 6 Nordeste 12 Nordeste 0 -- -- 39
2020-09-01 07:00:00 17.5 8 Oeste 12 Nordeste 0 -- -- 41
2020-09-01 06:00:00 19.9 6 Nordeste 10 Nordeste 0 -- -- 31
2020-09-01 05:00:00 19.4 3 Oeste 7 Sudoeste 0 -- -- 33
2020-09-01 04:00:00 19.8 2 Oeste 9 Nordeste 0 -- -- 32
2020-09-01 03:00:00 19.1 4 Noroeste 9 Oeste 0 -- -- 36
2020-09-01 02:00:00 22.1 2 Sudeste 14 Norte 0 -- -- 27
2020-09-01 01:00:00 21.8 8 Nordeste 12 Nordeste 0 -- -- 27
2020-09-01 00:00:00 21.3 7 Norte 12 Norte 0 -- -- 27
2020-08-31 23:00:00 22.7 9 Norte 11 Norte 0 -- -- 24
2020-08-31 22:00:00 23 10 Norte 15 Norte 0 -- -- 25
2020-08-31 21:00:00 24.1 11 Norte 15 Norte 0 -- -- 24
2020-08-31 20:00:00 27.3 13 Norte 19 Norte 0 -- -- 21
2020-08-31 19:00:00 28.1 10 Norte 24 Norte 0 -- -- 21
2020-08-31 18:00:00 29 9 Nordeste 21 Sudoeste 0 -- -- 20
2020-08-31 17:00:00 29.5 5 Sudeste 20 Sur 0 -- -- 16
2020-08-31 16:00:00 28.1 5 Nordeste 18 Oeste 0 -- -- 19
2020-08-31 15:00:00 27.3 9 Sudeste 23 Este 0 -- -- 21
2020-08-31 14:00:00 26.3 9 Sudeste 26 Este 0 -- -- 24
2020-08-31 13:00:00 25.4 15 Este 31 Este 0 -- -- 25
2020-08-31 12:00:00 23.9 18 Este 40 Este 0 -- -- 31
2020-08-31 11:00:00 21.1 24 Este 43 Este 0 -- -- 35
2020-08-31 10:00:00 19.2 23 Este 41 Este 0 -- -- 38
2020-08-31 09:00:00 17.6 24 Este 37 Nordeste 0 -- -- 40
2020-08-31 08:00:00 16.6 24 Este 39 Este 0 -- -- 40
2020-08-31 07:00:00 16.8 21 Este 37 Este 0 -- -- 39
2020-08-31 06:00:00 17.3 21 Este 33 Este 0 -- -- 36
2020-08-31 05:00:00 17.7 15 Este 24 Este 0 -- -- 34
2020-08-31 04:00:00 19.1 12 Nordeste 22 Norte 0 -- -- 31
2020-08-31 03:00:00 19.2 16 Norte 27 Norte 0 -- -- 32
2020-08-31 02:00:00 19.8 19 Norte 31 Norte 0 -- -- 31
2020-08-31 01:00:00 20 23 Norte 37 Norte 0 -- -- 31
2020-08-31 00:00:00 19.8 23 Norte 38 Norte 0 -- -- 31
2020-08-30 23:00:00 20.7 23 Norte 36 Norte 0 -- -- 30
2020-08-30 22:00:00 22.3 23 Norte 33 Nordeste 0 -- -- 27
2020-08-30 21:00:00 23.1 9 Norte 23 Noroeste 0 -- -- 28
2020-08-30 20:00:00 25.8 11 Noroeste 21 Noroeste 0 -- -- 23
2020-08-30 19:00:00 26.2 9 Norte 24 Noroeste 0 -- -- 23
2020-08-30 18:00:00 26.4 12 Norte 28 Norte 0 -- -- 23
2020-08-30 17:00:00 26.3 13 Norte 30 Nordeste 0 -- -- 21
2020-08-30 16:00:00 25.7 12 Norte 24 Norte 0 -- -- 26
2020-08-30 15:00:00 24.9 13 Norte 29 Nordeste 0 -- -- 29
2020-08-30 14:00:00 25.5 12 Sudeste 26 Este 0 -- -- 29
2020-08-30 13:00:00 23.4 11 Este 27 Nordeste 0 -- -- 32
2020-08-30 12:00:00 22.2 18 Este 33 Este 0 -- -- 34
2020-08-30 11:00:00 21 21 Este 35 Este 0 -- -- 36
2020-08-30 10:00:00 19.3 15 Este 28 Norte 0 -- -- 41
2020-08-30 09:00:00 16.7 15 Nordeste 27 Nordeste 0 -- -- 48
2020-08-30 08:00:00 15.8 13 Nordeste 32 Norte 0 -- -- 50
2020-08-30 07:00:00 16.1 22 Norte 30 Norte 0 -- -- 50
2020-08-30 06:00:00 16.1 21 Norte 32 Norte 0 -- -- 51
2020-08-30 05:00:00 16.4 20 Norte 42 Norte 0 -- -- 51
2020-08-30 04:00:00 17.3 31 Norte 44 Norte 0 -- -- 47
2020-08-30 03:00:00 17.9 27 Norte 46 Norte 0 -- -- 45
2020-08-30 02:00:00 18.7 30 Norte 45 Norte 0 -- -- 43
2020-08-30 01:00:00 18.6 19 Norte 34 Norte 0 -- -- 42
2020-08-30 00:00:00 19.8 25 Norte 40 Norte 0 -- -- 39
2020-08-29 23:00:00 20 9 Norte 26 Norte 0 -- -- 39
2020-08-29 22:00:00 21.4 15 Norte 30 Noroeste 0 -- -- 36
2020-08-29 21:00:00 22.3 14 Norte 30 Norte 0 -- -- 34
2020-08-29 20:00:00 23.9 17 Norte 37 Norte 0 -- -- 32
2020-08-29 19:00:00 25.9 18 Norte 36 Noroeste 0 -- -- 25
2020-08-29 18:00:00 26 19 Norte 35 Norte 0 -- -- 25
2020-08-29 17:00:00 26 17 Norte 35 Norte 0 -- -- 27
2020-08-29 16:00:00 25.1 18 Norte 40 Norte 0 -- -- 29
2020-08-29 15:00:00 24.4 20 Norte 41 Norte 0 -- -- 31
2020-08-29 14:00:00 23.1 24 Norte 44 Norte 0 -- -- 33
2020-08-29 13:00:00 22 28 Norte 53 Norte 0 -- -- 35
2020-08-29 12:00:00 20.8 26 Norte 46 Norte 0 -- -- 38
2020-08-29 11:00:00 18.9 26 Norte 48 Norte 0 -- -- 43
2020-08-29 10:00:00 17.1 31 Norte 54 Norte 0 -- -- 47
2020-08-29 09:00:00 14.7 21 Norte 47 Norte 0 -- -- 55
2020-08-29 08:00:00 14.3 29 Norte 58 Noroeste 0 -- -- 56
2020-08-29 07:00:00 14.5 43 Noroeste 62 Noroeste 0 -- -- 57
2020-08-29 06:00:00 15.3 40 Noroeste 59 Noroeste 0 -- -- 54
2020-08-29 05:00:00 16.1 28 Noroeste 52 Norte 0 -- -- 49
2020-08-29 04:00:00 17 26 Noroeste 49 Norte 0 -- -- 45
2020-08-29 03:00:00 18 27 Noroeste 48 Noroeste 0 -- -- 46
2020-08-29 02:00:00 18.9 29 Noroeste 55 Norte 0 -- -- 43
2020-08-29 01:00:00 20 30 Norte 56 Norte 0 -- -- 41
2020-08-29 00:00:00 21.4 30 Norte 46 Noroeste 0 -- -- 43
2020-08-28 23:00:00 22.3 31 Noroeste 50 Noroeste 0 -- -- 37
2020-08-28 22:00:00 23.8 32 Noroeste 50 Noroeste 0 -- -- 30
2020-08-28 21:00:00 26.4 26 Noroeste 40 Noroeste 0 -- -- 27
2020-08-28 20:00:00 29.3 19 Noroeste 35 Noroeste 0 -- -- 21
2020-08-28 19:00:00 31 21 Noroeste 44 Oeste 0 -- -- 18
2020-08-28 18:00:00 32.1 22 Noroeste 44 Oeste 0 -- -- 14
2020-08-28 17:00:00 31.7 26 Oeste 50 Oeste 0 -- -- 14
2020-08-28 16:00:00 31.3 17 Oeste 45 Oeste 0 -- -- 19
2020-08-28 15:00:00 30.3 23 Oeste 51 Noroeste 0 -- -- 21
2020-08-28 14:00:00 29.4 19 Norte 42 Oeste 0 -- -- 32
2020-08-28 13:00:00 27.4 22 Noroeste 39 Norte 0 -- -- 39
2020-08-28 12:00:00 26 23 Noroeste 45 Noroeste 0 -- -- 47
2020-08-28 11:00:00 24.7 25 Norte 43 Noroeste 0 -- -- 52
2020-08-28 10:00:00 23.5 24 Norte 36 Noroeste 0 -- -- 58
2020-08-28 09:00:00 22.2 7 Oeste 31 Noroeste 0 -- -- 61
2020-08-28 08:00:00 22.1 13 Noroeste 35 Norte 0 -- -- 57
2020-08-28 07:00:00 22.2 22 Noroeste 43 Noroeste 0 -- -- 56
2020-08-28 06:00:00 22.7 35 Norte 49 Noroeste 0 -- -- 56
2020-08-28 05:00:00 22.9 28 Noroeste 45 Noroeste 0 -- -- 60
2020-08-28 04:00:00 24.2 29 Noroeste 48 Noroeste 0 -- -- 57
2020-08-28 03:00:00 25.3 30 Noroeste 42 Norte 0 -- -- 55
2020-08-28 02:00:00 26.3 30 Norte 44 Norte 0 -- -- 51
2020-08-28 01:00:00 27.2 35 Norte 47 Norte 0 -- -- 47
2020-08-28 00:00:00 28.4 33 Norte 44 Noroeste 0 -- -- 43
2020-08-27 23:00:00 29.5 30 Norte 40 Norte 0 -- -- 41
2020-08-27 22:00:00 30.8 26 Norte 39 Norte 0 -- -- 39
2020-08-27 21:00:00 33.3 24 Noroeste 38 Noroeste 0 -- -- 32
2020-08-27 20:00:00 36.5 19 Oeste 32 Oeste 0 -- -- 24
2020-08-27 19:00:00 37.7 17 Sudoeste 31 Sudoeste 0 -- -- 25
2020-08-27 18:00:00 38.2 15 Oeste 27 Oeste 0 -- -- 25
2020-08-27 17:00:00 37.3 9 Noroeste 47 Oeste 0 -- -- 24
2020-08-27 16:00:00 37.6 12 Oeste 27 Oeste 0 -- -- 23
2020-08-27 15:00:00 36.5 8 Este 18 Sur 0 -- -- 27
2020-08-27 14:00:00 34.9 10 Este 25 Norte 0 -- -- 29
2020-08-27 13:00:00 33 12 Norte 24 Nordeste 0 -- -- 35
2020-08-27 12:00:00 31.3 16 Norte 37 Norte 0 -- -- 39
2020-08-27 11:00:00 29.4 23 Norte 34 Norte 0 -- -- 43
2020-08-27 10:00:00 26.3 6 Noroeste 15 Noroeste 0 -- -- 54
2020-08-27 09:00:00 23.1 4 Sur 10 Sur 0 -- -- 64
2020-08-27 08:00:00 23.3 5 Sudeste 11 Sur 0 -- -- 60
2020-08-27 07:00:00 24.7 3 Norte 26 Norte 0 -- -- 54
2020-08-27 06:00:00 23.9 8 Sudoeste 15 Sudoeste 0 -- -- 56
2020-08-27 05:00:00 24.4 6 Sudoeste 9 Sudoeste 0 -- -- 55
2020-08-27 04:00:00 25.2 9 Sudoeste 13 Sudoeste 0 -- -- 52
2020-08-27 03:00:00 28.1 4 Sudoeste 33 Norte 0 -- -- 40
2020-08-27 02:00:00 29.3 24 Norte 36 Norte 0 -- -- 38
2020-08-27 01:00:00 29.4 28 Norte 45 Noroeste 0 -- -- 39
2020-08-27 00:00:00 29.6 19 Oeste 37 Oeste 0 -- -- 37
2020-08-26 23:00:00 29.6 15 Oeste 22 Sudoeste 0 -- -- 23
2020-08-26 22:00:00 31.2 0 Calma 6 Oeste 0 -- -- 19
2020-08-26 21:00:00 34.6 4 Oeste 15 Oeste 0 -- -- 16
2020-08-26 20:00:00 37.4 10 Oeste 24 Oeste 0 -- -- 13
2020-08-26 19:00:00 38.2 14 Oeste 28 Sudoeste 0 -- -- 12
2020-08-26 18:00:00 38.9 12 Sudoeste 25 Sudoeste 0 -- -- 13
2020-08-26 17:00:00 38.3 12 Sudoeste 28 Oeste 0 -- -- 15
2020-08-26 16:00:00 37.9 11 Sudoeste 23 Sur 0 -- -- 16
2020-08-26 15:00:00 36.8 15 Sudoeste 24 Sudoeste 0 -- -- 17
2020-08-26 14:00:00 35.6 10 Oeste 21 Oeste 0 -- -- 19
2020-08-26 13:00:00 34.5 15 Sur 26 Sur 0 -- -- 21
2020-08-26 12:00:00 31.6 7 Sur 14 Sur 0 -- -- 28
2020-08-26 11:00:00 28.4 4 Sur 10 Sur 0 -- -- 35
2020-08-26 10:00:00 24.7 5 Sudoeste 8 Oeste 0 -- -- 41
2020-08-26 09:00:00 22.4 2 Sudoeste 6 Nordeste 0 -- -- 45
2020-08-26 08:00:00 21.5 6 Nordeste 9 Nordeste 0 -- -- 44
2020-08-26 07:00:00 21.4 5 Este 8 Este 0 -- -- 51
2020-08-26 06:00:00 22.3 4 Sudeste 10 Noroeste 0 -- -- 45
2020-08-26 05:00:00 23.2 5 Oeste 21 Norte 0 -- -- 43
2020-08-26 04:00:00 26.7 12 Noroeste 22 Noroeste 0 -- -- 33
2020-08-26 03:00:00 25.1 9 Sudoeste 14 Sudoeste 0 -- -- 37
2020-08-26 02:00:00 28.3 6 Sudoeste 35 Norte 0 -- -- 29
2020-08-26 01:00:00 29.1 25 Norte 38 Norte 0 -- -- 28
2020-08-26 00:00:00 30 16 Norte 35 Oeste 0 -- -- 25
2020-08-25 23:00:00 31 21 Oeste 34 Oeste 0 -- -- 24
2020-08-25 22:00:00 33 14 Noroeste 19 Oeste 0 -- -- 19
2020-08-25 21:00:00 35 4 Oeste 14 Sudoeste 0 -- -- 22
2020-08-25 20:00:00 37.2 8 Sudoeste 19 Sudoeste 0 -- -- 20
2020-08-25 19:00:00 38.5 12 Sudoeste 23 Sudoeste 0 -- -- 18
2020-08-25 18:00:00 38.2 11 Sur 28 Oeste 0 -- -- 19
2020-08-25 17:00:00 38.2 11 Sur 30 Sudoeste 0 -- -- 17
2020-08-25 16:00:00 38 15 Sudoeste 32 Sudoeste 0 -- -- 19
2020-08-25 15:00:00 37 16 Sudoeste 30 Oeste 0 -- -- 18
2020-08-25 14:00:00 35.8 8 Oeste 19 Sudoeste 0 -- -- 21
2020-08-25 13:00:00 34.3 8 Sudeste 16 Sudeste 0 -- -- 23
2020-08-25 12:00:00 31.5 8 Sudeste 17 Sudeste 0 -- -- 27
2020-08-25 11:00:00 29.1 11 Este 17 Este 0 -- -- 28
2020-08-25 10:00:00 26.7 6 Este 13 Nordeste 0 -- -- 31
2020-08-25 09:00:00 22.6 4 Nordeste 6 Norte 0 -- -- 38
2020-08-25 08:00:00 20 3 Noroeste 7 Oeste 0 -- -- 44
2020-08-25 07:00:00 21.7 2 Norte 9 Nordeste 0 -- -- 39
2020-08-25 06:00:00 22.4 6 Nordeste 9 Nordeste 0 -- -- 38
2020-08-25 05:00:00 22.3 5 Este 8 Sur 0 -- -- 38
2020-08-25 04:00:00 24.6 3 Este 18 Norte 0 -- -- 36
2020-08-25 03:00:00 26.5 8 Norte 16 Norte 0 -- -- 31
2020-08-25 02:00:00 25.8 4 Sur 12 Nordeste 0 -- -- 35
2020-08-25 01:00:00 27.8 3 Nordeste 16 Norte 0 -- -- 29
2020-08-25 00:00:00 29.1 3 Noroeste 5 Noroeste 0 -- -- 27
2020-08-24 23:00:00 29.1 3 Sudoeste 14 Norte 0 -- -- 28
2020-08-24 22:00:00 30.4 8 Norte 16 Norte 0 -- -- 26
2020-08-24 21:00:00 31.8 14 Norte 22 Norte 0 -- -- 27
2020-08-24 20:00:00 34.4 15 Norte 21 Norte 0 -- -- 24
2020-08-24 19:00:00 37.5 6 Oeste 19 Sudoeste 0 -- -- 16
2020-08-24 18:00:00 36.5 8 Oeste 26 Oeste 0 -- -- 17
2020-08-24 17:00:00 37.4 8 Oeste 24 Sur 0 -- -- 19
2020-08-24 16:00:00 35.7 9 Nordeste 24 Sudeste 0 -- -- 23
2020-08-24 15:00:00 35.2 8 Nordeste 21 Sudeste 0 -- -- 24
2020-08-24 14:00:00 34 9 Este 27 Este 0 -- -- 26
2020-08-24 13:00:00 32.3 16 Este 32 Este 0 -- -- 27
2020-08-24 12:00:00 30.9 21 Este 30 Este 0 -- -- 31
2020-08-24 11:00:00 28.9 19 Este 31 Este 0 -- -- 34
2020-08-24 10:00:00 27.4 25 Este 38 Este 0 -- -- 35
2020-08-24 09:00:00 26.1 12 Nordeste 27 Nordeste 0 -- -- 29
2020-08-24 08:00:00 25.3 12 Nordeste 28 Norte 0 -- -- 28
2020-08-24 07:00:00 25.9 23 Norte 37 Norte 0 -- -- 28
2020-08-24 06:00:00 24.9 22 Norte 39 Norte 0 -- -- 30
2020-08-24 05:00:00 25.2 27 Norte 39 Norte 0 -- -- 30
2020-08-24 04:00:00 25.7 30 Norte 46 Norte 0 -- -- 29
2020-08-24 03:00:00 26.5 35 Norte 47 Norte 0 -- -- 28
2020-08-24 02:00:00 26.8 31 Norte 44 Norte 0 -- -- 28
2020-08-24 01:00:00 27 29 Norte 38 Norte 0 -- -- 27
2020-08-24 00:00:00 27.7 23 Norte 33 Norte 0 -- -- 26
2020-08-23 23:00:00 28.7 17 Norte 27 Noroeste 0 -- -- 24
2020-08-23 22:00:00 30.5 19 Noroeste 26 Noroeste 0 -- -- 21
2020-08-23 21:00:00 31.3 12 Noroeste 18 Noroeste 0 -- -- 20
2020-08-23 20:00:00 34 9 Norte 21 Norte 0 -- -- 18
2020-08-23 19:00:00 34.5 14 Noroeste 25 Norte 0 -- -- 16
2020-08-23 18:00:00 34.6 14 Norte 31 Noroeste 0 -- -- 16
2020-08-23 17:00:00 34.5 19 Noroeste 30 Norte 0 -- -- 17
2020-08-23 16:00:00 34 15 Norte 27 Norte 0 -- -- 18
2020-08-23 15:00:00 33.3 13 Norte 27 Nordeste 0 -- -- 20
2020-08-23 14:00:00 32.2 13 Norte 28 Norte 0 -- -- 23
2020-08-23 13:00:00 30.6 18 Norte 30 Noroeste 0 -- -- 25
2020-08-23 12:00:00 29 17 Nordeste 33 Noroeste 0 -- -- 26
2020-08-23 11:00:00 26.9 22 Norte 35 Norte 0 -- -- 28
2020-08-23 10:00:00 25 15 Norte 25 Nordeste 0 -- -- 30
2020-08-23 09:00:00 22.9 13 Nordeste 29 Norte 0 -- -- 34
2020-08-23 08:00:00 22.2 10 Norte 39 Norte 0 -- -- 35
2020-08-23 07:00:00 22.7 19 Norte 45 Norte 0 -- -- 33
2020-08-23 06:00:00 22.5 31 Norte 46 Norte 0 -- -- 34
2020-08-23 05:00:00 22.9 30 Norte 41 Norte 0 -- -- 32
2020-08-23 04:00:00 23.6 21 Norte 36 Norte 0 -- -- 29
2020-08-23 03:00:00 23.8 19 Norte 33 Norte 0 -- -- 27
2020-08-23 02:00:00 24.9 23 Norte 35 Norte 0 -- -- 25
2020-08-23 01:00:00 25.8 23 Norte 35 Norte 0 -- -- 22
2020-08-23 00:00:00 26.4 25 Norte 36 Norte 0 -- -- 21
2020-08-22 23:00:00 27.2 25 Norte 36 Norte 0 -- -- 19
2020-08-22 22:00:00 28.2 24 Norte 33 Noroeste 0 -- -- 20
2020-08-22 21:00:00 30.3 12 Norte 18 Norte 0 -- -- 20
2020-08-22 20:00:00 33.1 9 Noroeste 20 Noroeste 0 -- -- 18
2020-08-22 19:00:00 33.7 10 Noroeste 46 Oeste 0 -- -- 18
2020-08-22 18:00:00 33.8 15 Noroeste 29 Noroeste 0 -- -- 14
2020-08-22 17:00:00 33.4 7 Noroeste 25 Noroeste 0 -- -- 16
2020-08-22 16:00:00 32.5 13 Noroeste 27 Noroeste 0 -- -- 20
2020-08-22 15:00:00 30.7 13 Norte 25 Noroeste 0 -- -- 25
2020-08-22 14:00:00 29.1 8 Noroeste 24 Norte 0 -- -- 30
2020-08-22 13:00:00 27.5 15 Norte 32 Norte 0 -- -- 34
2020-08-22 12:00:00 25.7 14 Norte 27 Norte 0 -- -- 40
2020-08-22 11:00:00 23.5 19 Norte 38 Norte 0 -- -- 47
2020-08-22 10:00:00 21.8 24 Norte 39 Norte 0 -- -- 52
2020-08-22 09:00:00 20.6 22 Norte 35 Norte 0 -- -- 56
2020-08-22 08:00:00 18.7 25 Norte 37 Norte 0 -- -- 63
2020-08-22 07:00:00 18.8 23 Norte 37 Norte 0 -- -- 64
2020-08-22 06:00:00 19.7 27 Norte 43 Norte 0 -- -- 60
2020-08-22 05:00:00 20.6 31 Norte 41 Norte 0 -- -- 57
2020-08-22 04:00:00 21.4 25 Norte 37 Norte 0 -- -- 54
2020-08-22 03:00:00 21.3 9 Noroeste 26 Noroeste 0 -- -- 54
2020-08-22 02:00:00 22.2 18 Norte 38 Norte 0 -- -- 50
2020-08-22 01:00:00 22.7 24 Norte 34 Noroeste 0 -- -- 49
2020-08-22 00:00:00 22.9 5 Este 24 Oeste 0 -- -- 46
2020-08-21 23:00:00 23.9 12 Oeste 19 Oeste 0 -- -- 45
2020-08-21 22:00:00 25.1 12 Oeste 21 Oeste 0 -- -- 43
2020-08-21 21:00:00 26.5 17 Oeste 28 Oeste 0 -- -- 46
2020-08-21 20:00:00 29 19 Oeste 28 Oeste 0 -- -- 42
2020-08-21 19:00:00 28.5 16 Oeste 27 Oeste 0 -- -- 47
2020-08-21 18:00:00 29.4 16 Oeste 32 Sudoeste 0 -- -- 47
2020-08-21 17:00:00 29.5 13 Noroeste 27 Sudoeste 0 -- -- 49
2020-08-21 16:00:00 29 14 Oeste 28 Sudoeste 0 -- -- 53
2020-08-21 15:00:00 27.7 17 Oeste 24 Oeste 0 -- -- 56
2020-08-21 14:00:00 25.4 12 Oeste 22 Oeste 0 -- -- 64
2020-08-21 13:00:00 25.9 14 Oeste 23 Oeste 0 -- -- 64
2020-08-21 12:00:00 24.5 6 Sudoeste 17 Oeste 0 -- -- 73
2020-08-21 11:00:00 23.2 7 Sudoeste 14 Oeste 0 -- -- 80
2020-08-21 10:00:00 22.2 3 Sudoeste 8 Oeste 0 -- -- 86
2020-08-21 09:00:00 22.1 0 Calma 4 Sudeste 0 -- -- 83
2020-08-21 08:00:00 21.7 0 Calma 5 Sudeste 0 -- -- 83
2020-08-21 07:00:00 21.3 4 Sur 12 Sudoeste 0 -- -- 85
2020-08-21 06:00:00 21.3 5 Sudoeste 18 Oeste 0 -- -- 84
2020-08-21 05:00:00 21.5 10 Oeste 17 Oeste 0 -- -- 84
2020-08-21 04:00:00 21.9 7 Sudoeste 17 Oeste 0 -- -- 81
2020-08-21 03:00:00 22.2 10 Oeste 25 Oeste 0 -- -- 80
2020-08-21 02:00:00 22.6 22 Oeste 33 Oeste 0 -- -- 78
2020-08-21 01:00:00 23.6 14 Oeste 28 Oeste 0 -- -- 74
2020-08-21 00:00:00 24.8 14 Sudoeste 36 Oeste 0 -- -- 65